createdAt,value
2022-09-21T00:02:13.654Z,97.70
2022-09-21T00:04:41.668Z,97.70
2022-09-21T00:07:09.936Z,97.60
2022-09-21T00:09:41.736Z,97.60
2022-09-21T00:12:15.705Z,98.10
2022-09-21T00:14:44.362Z,97.70
2022-09-21T00:17:15.145Z,97.80
2022-09-21T00:19:44.244Z,97.90
2022-09-21T00:22:14.323Z,98.60
2022-09-21T00:24:42.271Z,98.00
2022-09-21T00:27:12.458Z,98.10
2022-09-21T00:29:40.470Z,98.20
2022-09-21T00:32:08.417Z,98.30
2022-09-21T00:34:37.162Z,98.40
2022-09-21T00:37:05.255Z,98.50
2022-09-21T00:39:36.239Z,98.60
2022-09-21T00:42:18.646Z,98.80
2022-09-21T00:44:46.585Z,98.70
2022-09-21T00:47:19.463Z,98.90
2022-09-21T00:49:54.769Z,98.90
2022-09-21T00:52:37.628Z,99.10
2022-09-21T00:55:37.720Z,99.30
2022-09-21T00:58:13.426Z,99.30
2022-09-21T01:00:52.471Z,99.30
2022-09-21T01:03:20.678Z,99.40
2022-09-21T01:05:52.744Z,99.50
2022-09-21T01:08:24.287Z,99.60
2022-09-21T01:11:19.334Z,99.60
2022-09-21T01:14:02.955Z,99.50
2022-09-21T01:16:42.368Z,99.60
2022-09-21T01:19:25.329Z,99.60
2022-09-21T01:22:14.662Z,99.70
2022-09-21T01:24:57.554Z,99.80
2022-09-21T01:28:13.500Z,99.90
2022-09-21T01:30:51.575Z,99.90
2022-09-21T01:33:27.014Z,99.90
2022-09-21T01:35:59.862Z,99.90
2022-09-21T01:38:46.591Z,99.90
2022-09-21T01:41:22.665Z,99.90
2022-09-21T01:43:56.382Z,99.90
2022-09-21T01:46:42.995Z,99.90
2022-09-21T01:49:16.490Z,99.90
2022-09-21T01:51:52.923Z,99.90
2022-09-21T01:54:30.754Z,99.90
2022-09-21T01:57:09.466Z,99.90
2022-09-21T01:59:52.002Z,99.90
2022-09-21T02:03:04.857Z,99.90
2022-09-21T02:05:36.424Z,99.90
2022-09-21T02:08:06.440Z,99.90
2022-09-21T02:10:43.828Z,99.90
2022-09-21T02:13:19.343Z,99.90
2022-09-21T02:16:12.418Z,99.90
2022-09-21T02:19:11.647Z,99.90
2022-09-21T02:22:05.155Z,99.90
2022-09-21T02:24:41.267Z,99.90
2022-09-21T02:27:31.016Z,99.90
2022-09-21T02:30:13.079Z,99.90
2022-09-21T02:33:05.014Z,99.90
2022-09-21T02:35:40.031Z,99.90
2022-09-21T02:38:27.203Z,99.90
2022-09-21T02:41:17.081Z,99.90
2022-09-21T02:44:14.820Z,99.90
2022-09-21T02:46:58.157Z,99.90
2022-09-21T02:49:31.622Z,99.90
2022-09-21T02:52:05.426Z,99.90
2022-09-21T02:54:40.564Z,99.90
2022-09-21T02:57:09.123Z,99.90
2022-09-21T02:59:36.778Z,99.90
2022-09-21T03:02:05.578Z,99.90
2022-09-21T03:04:34.286Z,99.90
2022-09-21T03:07:02.377Z,99.90
2022-09-21T03:09:33.356Z,99.90
2022-09-21T03:12:01.210Z,99.90
2022-09-21T03:14:28.824Z,99.90
2022-09-21T03:16:57.176Z,99.90
2022-09-21T03:19:25.568Z,99.90
2022-09-21T03:21:54.673Z,99.90
2022-09-21T03:24:41.324Z,99.90
2022-09-21T03:27:09.927Z,99.90
2022-09-21T03:29:40.501Z,99.90
2022-09-21T03:32:08.112Z,99.90
2022-09-21T03:34:36.687Z,99.90
2022-09-21T03:37:06.957Z,99.90
2022-09-21T03:39:35.193Z,99.90
2022-09-21T03:42:04.022Z,99.90
2022-09-21T03:44:31.600Z,99.90
2022-09-21T03:46:59.348Z,99.90
2022-09-21T03:49:27.148Z,99.90
2022-09-21T03:51:56.091Z,99.90
2022-09-21T03:54:23.695Z,99.90
2022-09-21T03:56:52.980Z,99.90
2022-09-21T03:59:23.797Z,99.90
2022-09-21T04:01:51.490Z,99.90
2022-09-21T04:04:19.099Z,99.90
2022-09-21T04:06:46.797Z,99.90
2022-09-21T04:09:18.224Z,99.90
2022-09-21T04:11:46.487Z,99.90
2022-09-21T04:14:14.352Z,99.90
2022-09-21T04:16:42.018Z,99.90
2022-09-21T04:19:09.724Z,99.90
2022-09-21T04:21:38.574Z,99.90
2022-09-21T04:24:06.304Z,99.90
2022-09-21T04:26:35.883Z,99.90
2022-09-21T04:29:06.885Z,99.90
2022-09-21T04:31:36.405Z,99.90
2022-09-21T04:34:05.905Z,99.90
2022-09-21T04:36:36.625Z,99.90
2022-09-21T04:39:06.358Z,99.90
2022-09-21T04:41:35.103Z,99.90
2022-09-21T04:44:02.992Z,99.90
2022-09-21T04:46:30.780Z,99.90
2022-09-21T04:48:58.360Z,99.90
2022-09-21T04:51:25.944Z,99.90
2022-09-21T04:53:53.728Z,99.90
2022-09-21T04:56:21.537Z,99.90
2022-09-21T04:58:58.792Z,99.90
2022-09-21T05:01:28.033Z,99.90
2022-09-21T05:04:06.051Z,99.90
2022-09-21T05:06:40.297Z,99.90
2022-09-21T05:09:30.451Z,99.90
2022-09-21T05:12:01.185Z,99.90
2022-09-21T05:14:28.835Z,99.90
2022-09-21T05:16:56.468Z,99.90
2022-09-21T05:19:24.158Z,99.90
2022-09-21T05:22:02.557Z,99.90
2022-09-21T05:24:30.192Z,99.90
2022-09-21T05:26:58.043Z,99.90
2022-09-21T05:29:27.187Z,99.90
2022-09-21T05:32:06.499Z,99.90
2022-09-21T05:34:39.658Z,99.90
2022-09-21T05:37:31.182Z,99.90
2022-09-21T05:40:00.379Z,99.90
2022-09-21T05:42:29.567Z,99.90
2022-09-21T05:45:09.555Z,99.90
2022-09-21T05:47:41.294Z,99.90
2022-09-21T05:50:28.585Z,99.90
2022-09-21T05:53:14.910Z,99.90
2022-09-21T05:56:03.181Z,99.90
2022-09-21T05:58:44.164Z,99.90
2022-09-21T06:01:49.066Z,99.90
2022-09-21T06:04:17.301Z,99.90
2022-09-21T06:06:45.163Z,99.90
2022-09-21T06:09:13.088Z,99.90
2022-09-21T06:11:46.612Z,99.90
2022-09-21T06:14:15.685Z,99.90
2022-09-21T06:16:45.877Z,99.90
2022-09-21T06:19:17.540Z,99.90
2022-09-21T06:21:50.094Z,99.90
2022-09-21T06:24:25.025Z,99.90
2022-09-21T06:26:59.163Z,99.90
2022-09-21T06:29:32.427Z,99.90
2022-09-21T06:32:03.019Z,99.90
2022-09-21T06:34:34.678Z,99.90
2022-09-21T06:37:03.212Z,99.90
2022-09-21T06:39:31.389Z,99.90
2022-09-21T06:41:59.648Z,99.90
2022-09-21T06:44:27.665Z,99.90
2022-09-21T06:46:55.412Z,99.90
2022-09-21T06:49:23.038Z,99.90
2022-09-21T06:51:54.196Z,99.90
2022-09-21T06:54:22.194Z,99.90
2022-09-21T06:57:00.200Z,99.90
2022-09-21T06:59:31.142Z,99.90
2022-09-21T07:02:04.588Z,99.90
2022-09-21T07:04:35.456Z,99.90
2022-09-21T07:07:04.739Z,99.90
2022-09-21T07:12:24.650Z,99.90
2022-09-21T07:14:55.420Z,99.90
2022-09-21T07:17:23.497Z,99.90
2022-09-21T07:20:02.430Z,99.90
2022-09-21T07:22:34.712Z,99.90
2022-09-21T07:25:03.588Z,99.90
2022-09-21T07:27:32.622Z,99.90
2022-09-21T07:30:02.568Z,99.90
2022-09-21T07:32:35.368Z,99.90
2022-09-21T07:35:03.156Z,99.90
2022-09-21T07:37:34.692Z,99.90
2022-09-21T07:40:05.993Z,99.90
2022-09-21T07:42:33.936Z,99.90
2022-09-21T07:45:09.476Z,99.90
2022-09-21T07:47:48.851Z,99.90
2022-09-21T07:50:22.054Z,99.90
2022-09-21T07:52:50.014Z,99.90
2022-09-21T07:55:22.394Z,99.90
2022-09-21T07:58:09.006Z,99.90
2022-09-21T08:00:39.700Z,99.90
2022-09-21T08:03:10.909Z,99.90
2022-09-21T08:05:38.752Z,99.90
2022-09-21T08:08:10.143Z,99.90
2022-09-21T08:10:47.444Z,99.90
2022-09-21T08:13:15.012Z,99.90
2022-09-21T08:15:49.670Z,99.90
2022-09-21T08:18:17.994Z,99.90
2022-09-21T08:20:58.436Z,99.90
2022-09-21T08:23:29.108Z,99.90
2022-09-21T08:26:06.775Z,99.90
2022-09-21T08:28:38.797Z,99.90
2022-09-21T08:31:12.671Z,99.90
2022-09-21T08:33:40.314Z,99.90
2022-09-21T08:36:09.562Z,99.90
2022-09-21T08:38:39.321Z,99.90
2022-09-21T08:41:20.756Z,99.90
2022-09-21T08:44:05.379Z,99.90
2022-09-21T08:46:37.776Z,99.90
2022-09-21T08:49:16.543Z,99.90
2022-09-21T08:51:53.141Z,99.90
2022-09-21T08:54:39.053Z,99.90
2022-09-21T08:57:13.351Z,99.80
2022-09-21T08:59:45.331Z,99.80
2022-09-21T09:02:50.422Z,99.70
2022-09-21T09:05:39.874Z,99.40
2022-09-21T09:08:22.835Z,99.50
2022-09-21T09:11:00.146Z,99.50
2022-09-21T09:14:13.985Z,99.50
2022-09-21T09:17:19.372Z,99.40
2022-09-21T09:20:25.668Z,99.30
2022-09-21T09:23:14.185Z,99.30
2022-09-21T09:25:43.489Z,99.20
2022-09-21T09:28:37.535Z,99.10
2022-09-21T09:31:14.865Z,99.00
2022-09-21T09:33:57.391Z,98.90
2022-09-21T09:36:57.306Z,98.90
2022-09-21T09:39:22.121Z,98.80
2022-09-21T09:42:13.293Z,98.80
2022-09-21T09:44:49.723Z,98.80
2022-09-21T09:47:36.434Z,98.50
2022-09-21T09:50:40.295Z,98.30
2022-09-21T09:53:12.120Z,98.10
2022-09-21T09:55:44.114Z,98.30
2022-09-21T09:58:34.386Z,98.30
2022-09-21T10:01:12.049Z,98.10
2022-09-21T10:03:40.934Z,98.10
2022-09-21T10:06:30.585Z,98.10
2022-09-21T10:08:58.401Z,98.00
2022-09-21T10:11:38.407Z,98.00
2022-09-21T10:14:16.908Z,97.80
2022-09-21T10:16:44.877Z,97.90
2022-09-21T10:19:26.438Z,97.90
2022-09-21T10:22:00.180Z,97.80
2022-09-21T10:24:42.323Z,97.80
2022-09-21T10:27:29.338Z,97.80
2022-09-21T10:29:57.523Z,97.50
2022-09-21T10:32:27.295Z,97.60
2022-09-21T10:35:10.570Z,97.50
2022-09-21T10:37:53.717Z,97.30
2022-09-21T10:40:21.487Z,97.20
2022-09-21T10:42:52.642Z,97.10
2022-09-21T10:45:24.296Z,97.00
2022-09-21T10:48:13.998Z,96.90
2022-09-21T10:50:50.912Z,96.20
2022-09-21T10:53:37.419Z,96.40
2022-09-21T10:56:26.903Z,95.50
2022-09-21T10:59:11.138Z,95.50
2022-09-21T11:01:48.684Z,94.90
2022-09-21T11:04:40.768Z,95.60
2022-09-21T11:07:20.115Z,95.50
2022-09-21T11:10:01.174Z,95.30
2022-09-21T11:12:42.930Z,95.20
2022-09-21T11:15:38.548Z,94.00
2022-09-21T11:18:14.642Z,94.70
2022-09-21T11:20:48.862Z,94.40
2022-09-21T11:23:36.413Z,94.10
2022-09-21T11:26:49.318Z,93.20
2022-09-21T11:29:23.356Z,92.90
2022-09-21T11:32:25.209Z,93.60
2022-09-21T11:35:05.040Z,93.10
2022-09-21T11:37:50.948Z,93.50
2022-09-21T11:40:35.289Z,92.40
2022-09-21T11:43:27.627Z,92.90
2022-09-21T11:45:58.945Z,92.40
2022-09-21T11:48:34.127Z,92.80
2022-09-21T11:51:19.986Z,91.90
2022-09-21T11:54:18.697Z,90.90
2022-09-21T11:57:01.261Z,91.30
2022-09-21T12:00:05.855Z,91.60
2022-09-21T12:03:01.254Z,90.60
2022-09-21T12:05:38.015Z,90.20
2022-09-21T12:08:15.002Z,90.80
2022-09-21T12:11:20.304Z,89.00
2022-09-21T12:14:25.331Z,86.30
2022-09-21T12:17:21.378Z,86.50
2022-09-21T12:20:18.019Z,85.00
2022-09-21T12:22:52.437Z,85.50
2022-09-21T12:25:31.762Z,82.60
2022-09-21T12:28:04.158Z,83.10
2022-09-21T12:30:33.424Z,80.40
2022-09-21T12:33:15.632Z,81.20
2022-09-21T12:35:59.162Z,78.10
2022-09-21T12:38:42.971Z,76.30
2022-09-21T12:41:23.153Z,77.40
2022-09-21T12:44:05.855Z,74.30
2022-09-21T12:46:48.858Z,73.20
2022-09-21T12:49:31.597Z,71.20
2022-09-21T12:52:09.495Z,72.50
2022-09-21T12:54:46.885Z,73.40
2022-09-21T12:58:14.064Z,72.80
2022-09-21T13:01:05.716Z,69.60
2022-09-21T13:03:37.522Z,71.60
2022-09-21T13:06:34.545Z,72.60
2022-09-21T13:09:07.305Z,70.40
2022-09-21T13:12:09.588Z,72.30
2022-09-21T13:14:43.742Z,69.20
2022-09-21T13:17:24.434Z,69.60
2022-09-21T13:20:07.677Z,69.10
2022-09-21T13:22:37.564Z,67.80
2022-09-21T13:25:05.752Z,70.70
2022-09-21T13:28:04.568Z,70.30
2022-09-21T13:30:38.051Z,68.20
2022-09-21T13:33:25.565Z,70.70
2022-09-21T13:36:04.966Z,68.50
2022-09-21T13:38:40.202Z,69.10
2022-09-21T13:41:22.101Z,69.20
2022-09-21T13:44:05.948Z,69.30
2022-09-21T13:46:39.405Z,68.60
2022-09-21T13:49:19.364Z,69.40
2022-09-21T13:52:11.976Z,68.30
2022-09-21T13:55:01.950Z,67.90
2022-09-21T13:57:45.155Z,68.20
2022-09-21T14:00:15.657Z,69.00
2022-09-21T14:03:06.602Z,70.30
2022-09-21T14:05:47.898Z,70.20
2022-09-21T14:08:18.583Z,69.60
2022-09-21T14:10:56.971Z,69.70
2022-09-21T14:13:33.928Z,68.80
2022-09-21T14:16:37.241Z,67.90
2022-09-21T14:19:30.542Z,66.70
2022-09-21T14:22:07.579Z,68.30
2022-09-21T14:25:34.330Z,68.80
2022-09-21T14:28:11.821Z,67.10
2022-09-21T14:30:49.798Z,68.80
2022-09-21T14:33:22.885Z,69.00
2022-09-21T14:35:59.504Z,68.00
2022-09-21T14:38:37.379Z,69.20
2022-09-21T14:41:08.913Z,69.10
2022-09-21T14:43:39.829Z,68.40
2022-09-21T14:46:46.076Z,68.40
2022-09-21T14:49:39.306Z,67.60
2022-09-21T14:52:32.161Z,68.30
2022-09-21T14:55:24.486Z,68.50
2022-09-21T14:58:16.461Z,68.30
2022-09-21T15:00:50.880Z,67.40
2022-09-21T15:03:49.406Z,68.40
2022-09-21T15:06:59.896Z,68.30
2022-09-21T15:10:22.974Z,68.60
2022-09-21T15:13:27.405Z,67.50
2022-09-21T15:15:57.705Z,67.70
2022-09-21T15:18:35.357Z,68.70
2022-09-21T15:21:05.586Z,68.50
2022-09-21T15:23:39.390Z,68.40
2022-09-21T15:26:21.145Z,68.50
2022-09-21T15:29:10.929Z,68.90
2022-09-21T15:31:42.519Z,69.30
2022-09-21T15:34:19.912Z,69.40
2022-09-21T15:36:53.988Z,69.40
2022-09-21T15:39:23.099Z,69.70
2022-09-21T15:42:06.171Z,70.00
2022-09-21T15:44:37.167Z,70.40
2022-09-21T15:47:09.284Z,71.20
2022-09-21T15:49:38.470Z,72.70
2022-09-21T15:52:15.068Z,73.10
2022-09-21T15:54:52.634Z,74.90
2022-09-21T15:57:36.763Z,74.60
2022-09-21T16:00:21.720Z,75.80
2022-09-21T16:03:06.296Z,75.70
2022-09-21T16:05:52.170Z,76.40
2022-09-21T16:08:34.466Z,76.20
2022-09-21T16:11:26.768Z,78.10
2022-09-21T16:14:30.235Z,78.50
2022-09-21T16:17:11.507Z,77.60
2022-09-21T16:19:42.340Z,77.60
2022-09-21T16:22:29.399Z,77.40
2022-09-21T16:24:59.671Z,77.80
2022-09-21T16:27:31.026Z,77.70
2022-09-21T16:30:01.168Z,78.80
2022-09-21T16:32:34.237Z,78.40
2022-09-21T16:35:31.683Z,79.00
2022-09-21T16:38:10.072Z,80.30
2022-09-21T16:40:37.678Z,79.40
2022-09-21T16:43:14.258Z,79.50
2022-09-21T16:45:42.041Z,79.70
2022-09-21T16:48:12.556Z,79.90
2022-09-21T16:50:43.162Z,80.10
2022-09-21T16:53:13.134Z,80.80
2022-09-21T16:55:43.324Z,81.90
2022-09-21T16:58:14.278Z,81.30
2022-09-21T17:00:43.391Z,81.00
2022-09-21T17:03:16.127Z,81.30
2022-09-21T17:05:45.154Z,82.00
2022-09-21T17:08:14.436Z,82.10
2022-09-21T17:10:45.141Z,82.40
2022-09-21T17:13:17.781Z,82.70
2022-09-21T17:15:49.786Z,82.90
2022-09-21T17:18:17.652Z,83.20
2022-09-21T17:20:45.551Z,83.40
2022-09-21T17:23:22.787Z,83.90
2022-09-21T17:25:52.622Z,84.20
2022-09-21T17:28:26.393Z,84.40
2022-09-21T17:31:04.944Z,84.90
2022-09-21T17:33:36.028Z,84.80
2022-09-21T17:36:08.121Z,85.50
2022-09-21T17:38:35.804Z,85.50
2022-09-21T17:41:14.657Z,85.60
2022-09-21T17:43:50.201Z,85.80
2022-09-21T17:46:43.044Z,86.10
2022-09-21T17:49:17.332Z,87.50
2022-09-21T17:52:03.733Z,86.90
2022-09-21T17:54:39.102Z,87.30
2022-09-21T17:57:29.831Z,87.60
2022-09-21T18:00:31.631Z,88.10
2022-09-21T18:02:59.617Z,89.50
2022-09-21T18:05:32.859Z,88.50
2022-09-21T18:08:05.645Z,89.00
2022-09-21T18:10:35.217Z,89.40
2022-09-21T18:13:13.543Z,89.80
2022-09-21T18:15:59.130Z,90.00
2022-09-21T18:18:52.049Z,90.30
2022-09-21T18:21:25.175Z,90.90
2022-09-21T18:24:18.035Z,90.70
2022-09-21T18:26:48.218Z,91.30
2022-09-21T18:29:46.591Z,91.10
2022-09-21T18:32:32.121Z,91.20
2022-09-21T18:35:40.303Z,91.60
2022-09-21T18:38:32.089Z,91.80
2022-09-21T18:41:28.559Z,92.00
2022-09-21T18:43:57.924Z,92.10
2022-09-21T18:47:06.296Z,91.90
2022-09-21T18:50:01.843Z,92.30
2022-09-21T18:52:48.834Z,92.40
2022-09-21T18:55:28.312Z,92.70
2022-09-21T18:58:24.174Z,92.40
2022-09-21T19:00:52.703Z,92.50
2022-09-21T19:03:26.793Z,92.70
2022-09-21T19:06:15.644Z,92.80
2022-09-21T19:09:08.013Z,93.20
2022-09-21T19:11:53.489Z,93.70
2022-09-21T19:14:31.199Z,93.30
2022-09-21T19:17:09.149Z,93.30
2022-09-21T19:20:02.924Z,93.40
2022-09-21T19:23:03.369Z,93.50
2022-09-21T19:25:49.949Z,94.00
2022-09-21T19:28:30.593Z,93.60
2022-09-21T19:31:20.965Z,93.80
2022-09-21T19:33:54.673Z,93.90
2022-09-21T19:36:24.278Z,94.20
2022-09-21T19:38:52.457Z,94.30
2022-09-21T19:41:42.444Z,94.40
2022-09-21T19:44:22.198Z,94.80
2022-09-21T19:47:16.713Z,94.80
2022-09-21T19:49:54.638Z,95.30
2022-09-21T19:52:35.296Z,95.10
2022-09-21T19:55:25.602Z,95.50
2022-09-21T19:58:23.023Z,95.50
2022-09-21T20:00:58.257Z,95.60
2022-09-21T20:03:42.584Z,95.80
2022-09-21T20:06:13.098Z,96.00
2022-09-21T20:09:19.099Z,96.00
2022-09-21T20:12:17.244Z,96.70
2022-09-21T20:14:53.236Z,96.50
2022-09-21T20:17:38.961Z,96.40
2022-09-21T20:20:28.735Z,96.50
2022-09-21T20:22:59.848Z,96.90
2022-09-21T20:25:52.412Z,96.80
2022-09-21T20:28:23.756Z,96.90
2022-09-21T20:30:51.819Z,97.10
2022-09-21T20:33:24.210Z,97.20
2022-09-21T20:35:58.259Z,97.20
2022-09-21T20:38:26.108Z,97.40
2022-09-21T20:41:00.211Z,97.50
2022-09-21T20:43:32.504Z,97.60
2022-09-21T20:46:07.216Z,97.60
2022-09-21T20:48:40.567Z,97.70
2022-09-21T20:51:12.253Z,97.90
2022-09-21T20:53:40.754Z,98.00
2022-09-21T20:56:08.972Z,98.10
2022-09-21T20:58:36.749Z,98.30
2022-09-21T21:01:06.647Z,98.40
2022-09-21T21:03:38.001Z,98.70
2022-09-21T21:06:15.770Z,98.60
2022-09-21T21:08:47.135Z,98.70
2022-09-21T21:11:25.094Z,98.80
2022-09-21T21:13:52.784Z,98.90
2022-09-21T21:16:22.148Z,99.00
2022-09-21T21:18:53.012Z,99.10
2022-09-21T21:21:24.658Z,99.20
2022-09-21T21:24:16.852Z,99.30
2022-09-21T21:27:01.298Z,99.40
2022-09-21T21:29:31.268Z,99.60
2022-09-21T21:32:04.081Z,99.60
2022-09-21T21:34:32.837Z,99.80
2022-09-21T21:37:01.454Z,99.80
2022-09-21T21:39:34.987Z,99.90
2022-09-21T21:42:03.896Z,99.90
2022-09-21T21:44:32.380Z,99.90
2022-09-21T21:47:15.437Z,99.90
2022-09-21T21:49:48.662Z,99.90
2022-09-21T21:52:21.990Z,99.90
2022-09-21T21:54:50.174Z,99.90
2022-09-21T21:57:21.445Z,99.90
2022-09-21T21:59:51.852Z,99.90
2022-09-21T22:02:19.597Z,99.90
2022-09-21T22:04:55.613Z,99.90
2022-09-21T22:07:23.484Z,99.90
2022-09-21T22:09:51.394Z,99.90
2022-09-21T22:12:19.131Z,99.90
2022-09-21T22:14:47.755Z,99.90
2022-09-21T22:17:15.777Z,99.90
2022-09-21T22:19:43.922Z,99.90
2022-09-21T22:22:13.794Z,99.90
2022-09-21T22:24:55.214Z,99.90
2022-09-21T22:27:23.136Z,99.90
2022-09-21T22:29:51.138Z,99.90
2022-09-21T22:32:18.925Z,99.90
2022-09-21T22:34:46.754Z,99.90
2022-09-21T22:37:19.556Z,99.90
2022-09-21T22:39:47.279Z,99.90
2022-09-21T22:42:18.672Z,99.90
2022-09-21T22:44:46.303Z,99.90
2022-09-21T22:47:17.073Z,99.90
2022-09-21T22:49:44.807Z,99.90
2022-09-21T22:52:12.755Z,99.90
2022-09-21T22:54:40.475Z,99.90
2022-09-21T22:57:10.510Z,99.90
2022-09-21T22:59:41.051Z,99.90
2022-09-21T23:02:12.045Z,99.90
2022-09-21T23:04:42.513Z,99.90
2022-09-21T23:07:10.277Z,99.90
2022-09-21T23:09:38.747Z,99.90
2022-09-21T23:12:09.275Z,99.90
2022-09-21T23:14:37.188Z,99.90
2022-09-21T23:17:04.931Z,99.90
2022-09-21T23:19:34.645Z,99.90
2022-09-21T23:22:02.396Z,99.90
2022-09-21T23:24:30.406Z,99.90
2022-09-21T23:26:58.638Z,99.90
2022-09-21T23:29:26.457Z,99.90
2022-09-21T23:31:54.655Z,99.90
2022-09-21T23:34:22.405Z,99.90
2022-09-21T23:36:53.159Z,99.90
2022-09-21T23:39:21.125Z,99.90
2022-09-21T23:41:55.224Z,99.90
2022-09-21T23:44:23.050Z,99.90
2022-09-21T23:46:54.186Z,99.90
2022-09-21T23:49:23.254Z,99.90
2022-09-21T23:51:51.039Z,99.90
2022-09-21T23:54:27.670Z,99.90
2022-09-21T23:56:58.071Z,99.90
2022-09-21T23:59:28.727Z,99.90
